Thursday, June 21, 2018, 12:07 PM EDT
Back to Local

KSWF, Newburgh / Stewart

Location: New Windsor, NY, United States Lat: 41.5
Local Time: 12:07 PM EDT (16:07 GMT) Lon: -74.1
Time Zone: US/Eastern Elev: 492 ft

Show me the last for .
Show Coded

Time T Td Feel RH Dir Speed Gust Alt SLP Vis Weather Sky Remarks
2018-06-21 11:45 79 57 80 47 Variable 6 - 29.82 - 20 CLR None
2018-06-21 10:45 73 59 77 60 Variable 6 - 29.82 - 20 FEW030 BKN120 None
2018-06-21 09:45 72 61 76 68 - Calm - 29.82 - 20 FEW025 BKN120 None
2018-06-21 08:45 70 64 - 83 - Calm - 29.81 - 15 FEW010 BKN100 None
2018-06-21 07:45 68 64 - 88 - Calm - 29.81 - 10 FEW010 BKN080 None
2018-06-21 06:45 66 64 - 93 - Calm - 29.79 - 10 FEW004 BKN080 None
2018-06-21 05:45 64 64 - 100 - Calm - 29.79 - 10 BKN060 None
2018-06-21 04:45 64 64 - 100 - Calm - 29.78 - 10 SCT050 BKN080 None
2018-06-21 03:45 64 64 - 100 - Calm - 29.78 - 7 FEW005 BKN050 None
2018-06-21 01:45 64 64 - 100 - Calm - 29.81 - 6 BR SCT030 BKN040 None
2018-06-21 00:45 68 64 - 88 - Calm - 29.82 - 6 BR SCT030 BKN040 None
2018-06-20 23:45 70 64 - 83 - Calm - 29.82 - 10 BKN040 None
2018-06-20 22:45 72 63 76 73 - Calm - 29.81 - 10 BKN040 None
2018-06-20 21:45 72 63 76 73 - Calm - 29.81 - 10 BKN070 None
2018-06-20 20:45 73 61 77 64 - Calm - 29.80 - 10 BKN070 None
2018-06-20 19:45 75 61 78 60 - Calm - 29.81 - 20 BKN100 None
2018-06-20 18:45 77 59 79 53 - Calm - 29.80 - 20 BKN100 None
2018-06-20 17:45 77 59 79 53 - Calm - 29.80 - 20 BKN100 None
2018-06-20 16:45 77 55 78 47 270° 6 - 29.83 - 20 SCT050 BKN100 None
2018-06-20 15:45 79 59 80 50 Variable 6 - 29.84 - 20 FEW050 BKN100 None
2018-06-20 14:45 79 59 80 50 Variable 6 - 29.85 - 20 FEW050 BKN100 None
2018-06-20 13:45 77 59 79 53 Variable 6 - 29.87 - 20 FEW050 BKN100 None
2018-06-20 12:45 75 52 77 44 Variable 6 - 29.88 - 20 BKN080 None

Support USWX by starting your Amazon purchase here.